createdAt,value
2016-03-14T00:00:08.776Z,0
2016-03-14T00:01:08.998Z,0
2016-03-14T00:02:08.767Z,0
2016-03-14T00:03:08.753Z,0
2016-03-14T00:04:08.772Z,0
2016-03-14T00:05:08.728Z,0
2016-03-14T00:06:10.058Z,0
2016-03-14T00:07:22.905Z,0
2016-03-14T00:08:08.720Z,0
2016-03-14T00:09:08.708Z,0
2016-03-14T00:10:09.241Z,0
2016-03-14T00:11:08.681Z,0
2016-03-14T00:12:09.419Z,0
2016-03-14T00:13:08.655Z,0
2016-03-14T00:14:08.658Z,0
2016-03-14T00:15:08.645Z,0
2016-03-14T00:16:08.647Z,0
2016-03-14T00:17:08.605Z,0
2016-03-14T00:18:08.638Z,0
2016-03-14T00:19:08.594Z,0
2016-03-14T00:20:08.612Z,0
2016-03-14T00:21:08.599Z,0
2016-03-14T00:22:08.554Z,0
2016-03-14T00:23:08.604Z,0
2016-03-14T00:24:08.404Z,0
2016-03-14T00:25:08.546Z,0
2016-03-14T00:26:08.534Z,0
2016-03-14T00:27:08.521Z,0
2016-03-14T00:28:08.509Z,0
2016-03-14T00:29:08.511Z,0
2016-03-14T00:30:08.482Z,0
2016-03-14T00:31:08.485Z,0
2016-03-14T00:32:08.472Z,0
2016-03-14T00:33:08.490Z,0
2016-03-14T00:34:08.431Z,0
2016-03-14T00:35:08.480Z,0
2016-03-14T00:36:08.437Z,0
2016-03-14T00:37:08.470Z,0
2016-03-14T00:38:08.442Z,0
2016-03-14T00:39:08.413Z,0
2016-03-14T00:40:08.447Z,0
2016-03-14T00:41:08.402Z,0
2016-03-14T00:42:08.389Z,0
2016-03-14T00:43:08.361Z,0
2016-03-14T00:44:08.348Z,0
2016-03-14T00:45:08.350Z,0
2016-03-14T00:46:08.322Z,0
2016-03-14T00:47:08.341Z,0
2016-03-14T00:48:08.312Z,0
2016-03-14T00:49:08.315Z,0
2016-03-14T00:50:08.286Z,0
2016-03-14T00:51:08.288Z,0
2016-03-14T00:52:08.276Z,0
2016-03-14T00:53:08.294Z,0
2016-03-14T00:54:08.265Z,0
2016-03-14T00:55:08.252Z,0
2016-03-14T00:56:08.224Z,0
2016-03-14T00:57:08.212Z,0
2016-03-14T00:58:08.234Z,0
2016-03-14T00:59:08.273Z,0
2016-03-14T01:00:09.486Z,0
2016-03-14T01:01:09.738Z,0
2016-03-14T01:02:09.500Z,0
2016-03-14T01:03:08.659Z,0
2016-03-14T01:04:09.114Z,0
2016-03-14T01:05:08.149Z,0
2016-03-14T01:06:08.542Z,0
2016-03-14T01:07:08.404Z,0
2016-03-14T01:08:08.111Z,0
2016-03-14T01:09:10.847Z,0
2016-03-14T01:10:09.819Z,0
2016-03-14T01:11:08.399Z,0
2016-03-14T01:12:09.339Z,0
2016-03-14T01:13:08.764Z,0
2016-03-14T01:14:08.938Z,0
2016-03-14T01:15:10.316Z,0
2016-03-14T01:16:09.693Z,0
2016-03-14T01:17:08.931Z,0
2016-03-14T01:18:08.028Z,0
2016-03-14T01:19:08.530Z,0
2016-03-14T01:20:08.626Z,0
2016-03-14T01:21:08.613Z,0
2016-03-14T01:22:07.991Z,0
2016-03-14T01:23:08.087Z,0
2016-03-14T01:24:07.965Z,0
2016-03-14T01:25:08.718Z,0
2016-03-14T01:26:22.111Z,0
2016-03-14T01:27:07.926Z,0
2016-03-14T01:28:07.882Z,0
2016-03-14T01:29:08.557Z,0
2016-03-14T01:30:07.873Z,0
2016-03-14T01:31:08.219Z,0
2016-03-14T01:32:07.847Z,0
2016-03-14T01:33:07.927Z,0
2016-03-14T01:34:07.852Z,0
2016-03-14T01:35:07.839Z,0
2016-03-14T01:36:07.810Z,0
2016-03-14T01:37:08.485Z,0
2016-03-14T01:38:07.800Z,0
2016-03-14T01:39:07.834Z,0
2016-03-14T01:40:07.789Z,0
2016-03-14T01:41:07.761Z,0
2016-03-14T01:42:07.749Z,0
2016-03-14T01:43:07.751Z,0
2016-03-14T01:44:07.722Z,0
2016-03-14T01:45:07.725Z,0
2016-03-14T01:46:07.712Z,0
2016-03-14T01:47:07.683Z,0
2016-03-14T01:48:07.733Z,0
2016-03-14T01:49:07.688Z,0
2016-03-14T01:50:07.691Z,0
2016-03-14T01:51:07.648Z,0
2016-03-14T01:52:07.696Z,0
2016-03-14T01:53:07.637Z,0
2016-03-14T01:54:07.670Z,0
2016-03-14T01:55:07.674Z,0
2016-03-14T01:56:07.598Z,0
2016-03-14T01:57:07.601Z,0
2016-03-14T01:58:07.604Z,0
2016-03-14T01:59:07.419Z,0
2016-03-14T02:00:07.406Z,0
2016-03-14T02:01:07.550Z,0
2016-03-14T02:02:07.583Z,0
2016-03-14T02:03:07.539Z,0
2016-03-14T02:04:07.526Z,0
2016-03-14T02:05:07.529Z,0
2016-03-14T02:06:07.563Z,0
2016-03-14T02:07:07.487Z,0
2016-03-14T02:08:07.506Z,0
2016-03-14T02:09:07.446Z,0
2016-03-14T02:10:07.527Z,0
2016-03-14T02:11:07.327Z,0
2016-03-14T02:12:07.438Z,0
2016-03-14T02:13:07.441Z,0
2016-03-14T02:14:07.428Z,0
2016-03-14T02:15:07.430Z,0
2016-03-14T02:16:07.433Z,0
2016-03-14T02:17:07.389Z,0
2016-03-14T02:18:07.391Z,0
2016-03-14T02:19:08.363Z,0
2016-03-14T02:20:08.804Z,0
2016-03-14T02:21:08.696Z,0
2016-03-14T02:22:08.277Z,0
2016-03-14T02:23:08.295Z,0
2016-03-14T02:24:07.299Z,0
2016-03-14T02:25:07.379Z,0
2016-03-14T02:26:07.632Z,0
2016-03-14T02:27:07.276Z,0
2016-03-14T02:28:08.075Z,0
2016-03-14T02:29:08.906Z,0
2016-03-14T02:30:07.518Z,0
2016-03-14T02:31:08.551Z,0
2016-03-14T02:32:07.211Z,0
2016-03-14T02:33:08.088Z,0
2016-03-14T02:34:09.342Z,0
2016-03-14T02:35:09.422Z,0
2016-03-14T02:36:36.565Z,0
2016-03-14T02:37:07.178Z,0
2016-03-14T02:38:07.914Z,0
2016-03-14T02:39:07.995Z,0
2016-03-14T02:40:07.170Z,0
2016-03-14T02:41:07.422Z,0
2016-03-14T02:42:07.143Z,0
2016-03-14T02:43:07.100Z,0
2016-03-14T02:44:08.149Z,0
2016-03-14T02:45:21.261Z,0
2016-03-14T02:46:07.077Z,0
2016-03-14T02:47:07.079Z,0
2016-03-14T02:48:07.808Z,0
2016-03-14T02:49:07.018Z,0
2016-03-14T02:50:07.429Z,0
2016-03-14T02:51:06.966Z,0
2016-03-14T02:52:06.957Z,0
2016-03-14T02:53:06.919Z,0
2016-03-14T02:54:06.934Z,0
2016-03-14T02:55:06.759Z,0
2016-03-14T02:56:06.899Z,0
2016-03-14T02:57:06.897Z,0
2016-03-14T02:58:06.865Z,0
2016-03-14T02:59:06.834Z,0
2016-03-14T03:00:06.836Z,0
2016-03-14T03:01:06.822Z,0
2016-03-14T03:02:06.838Z,0
2016-03-14T03:03:06.809Z,0
2016-03-14T03:04:06.827Z,0
2016-03-14T03:05:06.796Z,0
2016-03-14T03:06:06.627Z,0
2016-03-14T03:07:06.598Z,0
2016-03-14T03:08:06.772Z,0
2016-03-14T03:09:06.744Z,0
2016-03-14T03:10:06.746Z,0
2016-03-14T03:11:06.733Z,0
2016-03-14T03:12:06.688Z,0
2016-03-14T03:13:06.677Z,0
2016-03-14T03:14:06.694Z,0
2016-03-14T03:15:06.682Z,0
2016-03-14T03:16:06.684Z,0
2016-03-14T03:17:06.657Z,0
2016-03-14T03:18:06.674Z,0
2016-03-14T03:19:06.646Z,0
2016-03-14T03:20:06.648Z,0
2016-03-14T03:21:06.620Z,0
2016-03-14T03:22:06.590Z,0
2016-03-14T03:23:06.593Z,0
2016-03-14T03:24:06.628Z,0
2016-03-14T03:25:06.568Z,0
2016-03-14T03:26:06.555Z,0
2016-03-14T03:27:06.558Z,0
2016-03-14T03:28:06.513Z,0
2016-03-14T03:29:06.531Z,0
2016-03-14T03:30:06.503Z,0
2016-03-14T03:31:06.522Z,0
2016-03-14T03:32:06.509Z,0
2016-03-14T03:33:06.495Z,0
2016-03-14T03:34:06.498Z,0
2016-03-14T03:35:06.486Z,0
2016-03-14T03:36:06.473Z,0
2016-03-14T03:37:06.444Z,0
2016-03-14T03:38:07.322Z,0
2016-03-14T03:39:07.840Z,0
2016-03-14T03:40:07.639Z,0
2016-03-14T03:41:07.221Z,0
2016-03-14T03:42:06.442Z,0
2016-03-14T03:43:06.976Z,0
2016-03-14T03:44:06.369Z,0
2016-03-14T03:45:06.402Z,0
2016-03-14T03:46:06.343Z,0
2016-03-14T03:47:07.954Z,0
2016-03-14T03:48:07.208Z,0
2016-03-14T03:49:06.304Z,0
2016-03-14T03:50:07.276Z,0
2016-03-14T03:51:07.028Z,0
2016-03-14T03:52:06.547Z,0
2016-03-14T03:54:20.849Z,0
2016-03-14T03:55:21.539Z,0
2016-03-14T03:56:06.495Z,0
2016-03-14T03:57:06.669Z,0
2016-03-14T03:58:07.109Z,0
2016-03-14T03:59:06.222Z,0
2016-03-14T04:00:06.240Z,0
2016-03-14T04:01:06.242Z,0
2016-03-14T04:02:06.167Z,0
2016-03-14T04:03:06.919Z,0
2016-03-14T04:04:20.344Z,0
2016-03-14T04:05:06.144Z,0
2016-03-14T04:06:06.131Z,0
2016-03-14T04:07:06.149Z,0
2016-03-14T04:08:06.824Z,0
2016-03-14T04:09:06.358Z,0
2016-03-14T04:10:06.158Z,0
2016-03-14T04:11:06.098Z,0
2016-03-14T04:12:06.116Z,0
2016-03-14T04:13:06.071Z,0
2016-03-14T04:14:06.059Z,0
2016-03-14T04:15:06.062Z,0
2016-03-14T04:16:06.049Z,0
2016-03-14T04:17:06.036Z,0
2016-03-14T04:18:06.039Z,0
2016-03-14T04:19:06.056Z,0
2016-03-14T04:20:05.981Z,0
2016-03-14T04:21:06.031Z,0
2016-03-14T04:22:05.971Z,0
2016-03-14T04:23:06.005Z,0
2016-03-14T04:24:05.962Z,0
2016-03-14T04:25:05.948Z,0
2016-03-14T04:26:05.951Z,0
2016-03-14T04:27:05.923Z,0
2016-03-14T04:28:05.926Z,0
2016-03-14T04:29:05.896Z,0
2016-03-14T04:30:05.915Z,0
2016-03-14T04:31:05.870Z,0
2016-03-14T04:32:05.858Z,0
2016-03-14T04:33:05.892Z,0
2016-03-14T04:34:05.848Z,0
2016-03-14T04:35:05.850Z,0
2016-03-14T04:36:05.837Z,0
2016-03-14T04:37:05.855Z,0
2016-03-14T04:38:05.795Z,0
2016-03-14T04:39:05.861Z,0
2016-03-14T04:40:05.801Z,0
2016-03-14T04:41:05.772Z,0
2016-03-14T04:42:05.791Z,0
2016-03-14T04:43:05.762Z,0
2016-03-14T04:44:05.766Z,0
2016-03-14T04:45:05.721Z,0
2016-03-14T04:46:05.755Z,0
2016-03-14T04:47:05.710Z,0
2016-03-14T04:48:05.729Z,0
2016-03-14T04:49:05.526Z,0
2016-03-14T04:50:05.702Z,0
2016-03-14T04:51:05.705Z,0
2016-03-14T04:52:05.677Z,0
2016-03-14T04:53:05.679Z,0
2016-03-14T04:54:05.651Z,0
2016-03-14T04:55:05.635Z,0
2016-03-14T04:56:05.607Z,0
2016-03-14T04:57:08.612Z,0
2016-03-14T04:58:06.131Z,0
2016-03-14T04:59:06.258Z,0
2016-03-14T05:00:06.198Z,0
2016-03-14T05:01:06.498Z,0
2016-03-14T05:02:05.686Z,0
2016-03-14T05:03:05.910Z,0
2016-03-14T05:04:05.613Z,0
2016-03-14T05:05:05.506Z,0
2016-03-14T05:06:05.949Z,0
2016-03-14T05:07:05.998Z,0
2016-03-14T05:08:05.545Z,0
2016-03-14T05:09:06.348Z,0
2016-03-14T05:10:06.428Z,0
2016-03-14T05:11:06.197Z,0
2016-03-14T05:12:05.949Z,0
2016-03-14T05:13:06.483Z,0
2016-03-14T05:14:06.455Z,0
2016-03-14T05:15:05.564Z,0
2016-03-14T05:16:19.616Z,0
2016-03-14T05:17:06.182Z,5
2016-03-14T05:18:05.416Z,5
2016-03-14T05:19:05.402Z,5
2016-03-14T05:20:05.391Z,5
2016-03-14T05:21:05.377Z,5
2016-03-14T05:22:05.802Z,5
2016-03-14T05:23:07.370Z,5
2016-03-14T05:24:05.338Z,10
2016-03-14T05:25:05.715Z,10
2016-03-14T05:26:05.312Z,10
2016-03-14T05:27:05.424Z,10
2016-03-14T05:28:05.771Z,15
2016-03-14T05:29:05.273Z,15
2016-03-14T05:30:05.276Z,15
2016-03-14T05:31:05.231Z,15
2016-03-14T05:32:05.250Z,20
2016-03-14T05:33:05.237Z,20
2016-03-14T05:34:05.240Z,20
2016-03-14T05:35:05.195Z,20
2016-03-14T05:36:05.214Z,25
2016-03-14T05:37:05.186Z,25
2016-03-14T05:38:05.189Z,25
2016-03-14T05:39:05.192Z,30
2016-03-14T05:40:05.178Z,30
2016-03-14T05:41:05.166Z,30
2016-03-14T05:42:05.136Z,30
2016-03-14T05:43:05.124Z,30
2016-03-14T05:44:05.111Z,30
2016-03-14T05:45:05.130Z,35
2016-03-14T05:46:05.069Z,35
2016-03-14T05:47:05.088Z,40
2016-03-14T05:48:05.074Z,40
2016-03-14T05:49:05.077Z,45
2016-03-14T05:50:05.049Z,45
2016-03-14T05:51:05.051Z,50
2016-03-14T05:52:05.038Z,55
2016-03-14T05:53:05.026Z,55
2016-03-14T05:54:05.013Z,55
2016-03-14T05:55:05.015Z,60
2016-03-14T05:56:04.987Z,60
2016-03-14T05:57:05.021Z,60
2016-03-14T05:58:04.851Z,60
2016-03-14T05:59:04.979Z,65
2016-03-14T06:00:04.950Z,65
2016-03-14T06:01:04.969Z,65
2016-03-14T06:02:04.925Z,65
2016-03-14T06:03:04.943Z,65
2016-03-14T06:04:04.898Z,65
2016-03-14T06:05:04.933Z,65
2016-03-14T06:06:04.877Z,65
2016-03-14T06:07:04.865Z,65
2016-03-14T06:08:04.868Z,70
2016-03-14T06:09:04.870Z,70
2016-03-14T06:10:04.842Z,75
2016-03-14T06:11:04.844Z,75
2016-03-14T06:12:04.816Z,75
2016-03-14T06:13:04.802Z,75
2016-03-14T06:14:04.806Z,75
2016-03-14T06:15:04.808Z,80
2016-03-14T06:16:06.907Z,85
2016-03-14T06:17:05.110Z,85
2016-03-14T06:18:05.504Z,80
2016-03-14T06:19:05.412Z,85
2016-03-14T06:20:05.041Z,80
2016-03-14T06:21:04.949Z,80
2016-03-14T06:22:05.218Z,85
2016-03-14T06:23:04.704Z,90
2016-03-14T06:24:04.692Z,90
2016-03-14T06:25:05.242Z,95
2016-03-14T06:26:04.963Z,100
2016-03-14T06:27:04.512Z,105
2016-03-14T06:28:06.062Z,110
2016-03-14T06:29:04.642Z,110
2016-03-14T06:30:04.833Z,115
2016-03-14T06:31:05.070Z,115
2016-03-14T06:32:06.370Z,120
2016-03-14T06:33:18.797Z,120
2016-03-14T06:34:05.703Z,130
2016-03-14T06:35:04.784Z,140
2016-03-14T06:36:05.286Z,155
2016-03-14T06:37:04.727Z,160
2016-03-14T06:38:04.573Z,160
2016-03-14T06:39:04.576Z,160
2016-03-14T06:40:04.547Z,170
2016-03-14T06:41:05.675Z,170
2016-03-14T06:42:04.880Z,180
2016-03-14T06:43:47.496Z,190
2016-03-14T06:44:04.511Z,190
2016-03-14T06:45:04.483Z,195
2016-03-14T06:46:04.594Z,205
2016-03-14T06:47:04.582Z,210
2016-03-14T06:48:04.490Z,215
2016-03-14T06:49:04.477Z,225
2016-03-14T06:50:04.465Z,230
2016-03-14T06:51:04.452Z,235
2016-03-14T06:52:04.454Z,240
2016-03-14T06:53:04.457Z,230
2016-03-14T06:54:04.412Z,230
2016-03-14T06:55:04.415Z,245
2016-03-14T06:56:04.325Z,260
2016-03-14T06:57:04.218Z,270
2016-03-14T06:58:04.408Z,280
2016-03-14T06:59:04.364Z,320
2016-03-14T07:00:04.382Z,335
2016-03-14T07:01:04.370Z,445
2016-03-14T07:02:04.357Z,390
2016-03-14T07:03:04.375Z,425
2016-03-14T07:04:04.362Z,485
2016-03-14T07:05:04.333Z,470
2016-03-14T07:06:04.336Z,455
2016-03-14T07:07:04.323Z,500
2016-03-14T07:08:04.311Z,515
2016-03-14T07:09:04.157Z,525
2016-03-14T07:10:04.316Z,520
2016-03-14T07:11:04.194Z,535
2016-03-14T07:12:04.274Z,570
2016-03-14T07:13:04.261Z,615
2016-03-14T07:14:04.279Z,650
2016-03-14T07:15:04.252Z,670
2016-03-14T07:16:04.254Z,680
2016-03-14T07:17:04.257Z,660
2016-03-14T07:18:04.243Z,630
2016-03-14T07:19:04.247Z,620
2016-03-14T07:20:04.296Z,640
2016-03-14T07:21:04.252Z,675
2016-03-14T07:22:04.254Z,660
2016-03-14T07:23:04.210Z,665
2016-03-14T07:24:04.243Z,640
2016-03-14T07:25:04.232Z,645
2016-03-14T07:26:04.109Z,645
2016-03-14T07:27:04.237Z,650
2016-03-14T07:28:04.207Z,590
2016-03-14T07:29:04.226Z,590
2016-03-14T07:30:04.212Z,665
2016-03-14T07:31:04.231Z,695
2016-03-14T07:32:04.203Z,675
2016-03-14T07:33:04.237Z,675
2016-03-14T07:34:04.193Z,460
2016-03-14T07:35:07.117Z,490
2016-03-14T07:36:05.261Z,410
2016-03-14T07:37:04.217Z,420
2016-03-14T07:38:04.251Z,440
2016-03-14T07:39:05.175Z,435
2016-03-14T07:40:04.755Z,420
2016-03-14T07:41:04.446Z,400
2016-03-14T07:42:04.214Z,400
2016-03-14T07:43:04.217Z,410
2016-03-14T07:44:04.189Z,465
2016-03-14T07:45:06.441Z,670
2016-03-14T07:46:05.913Z,605
2016-03-14T07:47:04.993Z,700
2016-03-14T07:48:04.183Z,730
2016-03-14T07:49:04.233Z,760
2016-03-14T07:50:04.736Z,520
2016-03-14T07:51:18.444Z,505
2016-03-14T07:52:18.744Z,755
2016-03-14T07:53:19.169Z,685
2016-03-14T07:54:04.841Z,535
2016-03-14T07:55:18.987Z,755
2016-03-14T07:56:04.596Z,790
2016-03-14T07:57:04.192Z,840
2016-03-14T07:58:04.070Z,850
2016-03-14T07:59:04.025Z,720
2016-03-14T08:00:05.951Z,515
2016-03-14T08:01:05.328Z,780
2016-03-14T08:02:04.206Z,595
2016-03-14T08:03:04.270Z,430
2016-03-14T08:04:04.476Z,830
2016-03-14T08:05:04.323Z,475
2016-03-14T08:06:04.042Z,795
2016-03-14T08:07:04.200Z,540
2016-03-14T08:08:04.187Z,425
2016-03-14T08:09:04.189Z,420
2016-03-14T08:10:04.178Z,410
2016-03-14T08:11:04.227Z,405
2016-03-14T08:12:04.198Z,415
2016-03-14T08:13:04.185Z,420
2016-03-14T08:14:04.172Z,430
2016-03-14T08:15:04.159Z,420
2016-03-14T08:16:04.193Z,420
2016-03-14T08:17:04.196Z,415
2016-03-14T08:18:04.183Z,410
2016-03-14T08:19:04.216Z,405
2016-03-14T08:20:04.173Z,415
2016-03-14T08:21:04.175Z,400
2016-03-14T08:22:04.131Z,405
2016-03-14T08:23:04.165Z,425
2016-03-14T08:24:04.152Z,435
2016-03-14T08:25:04.154Z,435
2016-03-14T08:26:04.251Z,420
2016-03-14T08:27:04.129Z,430
2016-03-14T08:28:04.148Z,450
2016-03-14T08:29:04.150Z,440
2016-03-14T08:30:04.121Z,410
2016-03-14T08:31:04.123Z,420
2016-03-14T08:32:03.955Z,425
2016-03-14T08:33:04.129Z,430
2016-03-14T08:34:04.132Z,440
2016-03-14T08:35:04.134Z,455
2016-03-14T08:36:04.122Z,470
2016-03-14T08:37:04.125Z,470
2016-03-14T08:38:04.096Z,455
2016-03-14T08:39:04.114Z,440
2016-03-14T08:40:04.102Z,420
2016-03-14T08:41:04.167Z,410
2016-03-14T08:42:04.092Z,410
2016-03-14T08:43:04.078Z,405
2016-03-14T08:44:04.081Z,360
2016-03-14T08:45:04.084Z,360
2016-03-14T08:46:04.071Z,360
2016-03-14T08:47:04.058Z,405
2016-03-14T08:48:04.044Z,400
2016-03-14T08:49:04.063Z,400
2016-03-14T08:50:04.050Z,390
2016-03-14T08:51:04.069Z,390
2016-03-14T08:52:04.071Z,405
2016-03-14T08:53:04.027Z,420
2016-03-14T08:54:07.421Z,435
2016-03-14T08:55:05.642Z,460
2016-03-14T08:56:04.066Z,465
2016-03-14T08:57:04.085Z,400
2016-03-14T08:58:04.103Z,225
2016-03-14T08:59:04.481Z,505
2016-03-14T09:00:05.015Z,530
2016-03-14T09:01:04.393Z,555
2016-03-14T09:02:03.832Z,560
2016-03-14T09:03:04.117Z,555
2016-03-14T09:04:04.275Z,550
2016-03-14T09:05:03.997Z,535
2016-03-14T09:06:03.968Z,515
2016-03-14T09:07:04.753Z,500
2016-03-14T09:08:04.645Z,500
2016-03-14T09:09:03.961Z,505
2016-03-14T09:10:19.028Z,495
2016-03-14T09:11:03.981Z,470
2016-03-14T09:12:03.969Z,445
2016-03-14T09:13:04.721Z,420
2016-03-14T09:14:03.958Z,410
2016-03-14T09:15:04.664Z,430
2016-03-14T09:16:03.808Z,430
2016-03-14T09:17:03.935Z,430
2016-03-14T09:18:03.954Z,410
2016-03-14T09:19:18.991Z,385
2016-03-14T09:20:18.524Z,385
2016-03-14T09:21:04.915Z,385
2016-03-14T09:22:03.965Z,390
2016-03-14T09:23:03.920Z,395
2016-03-14T09:24:18.112Z,405
2016-03-14T09:25:03.909Z,400
2016-03-14T09:26:03.929Z,400
2016-03-14T09:27:03.899Z,415
2016-03-14T09:28:03.887Z,420
2016-03-14T09:29:03.904Z,425
2016-03-14T09:30:03.923Z,425
2016-03-14T09:31:03.910Z,415
2016-03-14T09:32:03.897Z,415
2016-03-14T09:33:03.885Z,405
2016-03-14T09:34:03.887Z,405
2016-03-14T09:35:03.890Z,385
2016-03-14T09:36:03.861Z,385
2016-03-14T09:37:03.911Z,390
2016-03-14T09:38:03.883Z,395
2016-03-14T09:39:03.870Z,395
2016-03-14T09:40:03.841Z,395
2016-03-14T09:41:03.875Z,395
2016-03-14T09:42:03.847Z,395
2016-03-14T09:43:03.865Z,390
2016-03-14T09:44:03.852Z,375
2016-03-14T09:45:03.855Z,355
2016-03-14T09:46:03.686Z,350
2016-03-14T09:47:03.860Z,320
2016-03-14T09:48:03.831Z,305
2016-03-14T09:49:03.818Z,295
2016-03-14T09:50:03.821Z,315
2016-03-14T09:51:03.839Z,315
2016-03-14T09:52:03.810Z,305
2016-03-14T09:53:03.830Z,295
2016-03-14T09:54:03.847Z,285
2016-03-14T09:55:03.819Z,285
2016-03-14T09:56:03.790Z,285
2016-03-14T09:57:03.777Z,280
2016-03-14T09:58:03.779Z,280
2016-03-14T09:59:03.798Z,280
2016-03-14T10:00:03.785Z,280
2016-03-14T10:01:03.773Z,280
2016-03-14T10:02:03.776Z,280
2016-03-14T10:03:03.746Z,275
2016-03-14T10:04:03.812Z,275
2016-03-14T10:05:03.752Z,275
2016-03-14T10:06:03.754Z,275
2016-03-14T10:07:03.590Z,270
2016-03-14T10:08:03.769Z,270
2016-03-14T10:09:03.726Z,270
2016-03-14T10:10:03.572Z,265
2016-03-14T10:11:03.731Z,265
2016-03-14T10:12:03.718Z,265
2016-03-14T10:13:04.814Z,260
2016-03-14T10:14:03.724Z,260
2016-03-14T10:15:04.508Z,255
2016-03-14T10:16:04.932Z,260
2016-03-14T10:17:04.482Z,260
2016-03-14T10:18:04.343Z,255
2016-03-14T10:19:04.237Z,260
2016-03-14T10:20:03.818Z,260
2016-03-14T10:21:03.679Z,260
2016-03-14T10:22:03.668Z,260
2016-03-14T10:23:05.123Z,260
2016-03-14T10:24:04.923Z,260
2016-03-14T10:25:04.315Z,260
2016-03-14T10:26:03.662Z,260
2016-03-14T10:27:04.212Z,260
2016-03-14T10:28:04.026Z,260
2016-03-14T10:29:05.030Z,260
2016-03-14T10:30:05.329Z,260
2016-03-14T10:31:18.397Z,255
2016-03-14T10:32:04.209Z,255
2016-03-14T10:33:17.793Z,250
2016-03-14T10:34:04.043Z,250
2016-03-14T10:35:03.609Z,250
2016-03-14T10:36:03.595Z,250
2016-03-14T10:37:03.582Z,250
2016-03-14T10:38:18.822Z,250
2016-03-14T10:39:17.762Z,250
2016-03-14T10:40:03.716Z,250
2016-03-14T10:41:17.908Z,250
2016-03-14T10:42:17.739Z,245
2016-03-14T10:43:04.005Z,245
2016-03-14T10:44:04.023Z,245
2016-03-14T10:45:03.541Z,245
2016-03-14T10:46:03.544Z,245
2016-03-14T10:47:03.531Z,245
2016-03-14T10:48:03.502Z,245
2016-03-14T10:49:03.490Z,245
2016-03-14T10:50:03.508Z,245
2016-03-14T10:51:03.510Z,245
2016-03-14T10:52:03.498Z,245
2016-03-14T10:53:03.484Z,245
2016-03-14T10:54:03.487Z,240
2016-03-14T10:55:03.459Z,240
2016-03-14T10:56:03.461Z,240
2016-03-14T10:57:03.480Z,240
2016-03-14T10:58:03.451Z,240
2016-03-14T10:59:03.423Z,235
2016-03-14T11:00:03.456Z,235
2016-03-14T11:01:03.444Z,235
2016-03-14T11:02:03.432Z,230
2016-03-14T11:03:03.418Z,230
2016-03-14T11:04:03.421Z,230
2016-03-14T11:05:03.409Z,225
2016-03-14T11:06:03.412Z,225
2016-03-14T11:07:03.414Z,225
2016-03-14T11:08:03.417Z,230
2016-03-14T11:09:03.373Z,225
2016-03-14T11:10:03.390Z,225
2016-03-14T11:11:03.362Z,225
2016-03-14T11:12:03.364Z,225
2016-03-14T11:13:03.367Z,225
2016-03-14T11:14:03.386Z,220
2016-03-14T11:15:03.373Z,220
2016-03-14T11:16:03.360Z,220
2016-03-14T11:17:03.331Z,225
2016-03-14T11:18:03.334Z,220
2016-03-14T11:19:03.321Z,215
2016-03-14T11:20:03.214Z,215
2016-03-14T11:21:03.327Z,215
2016-03-14T11:22:03.301Z,215
2016-03-14T11:23:03.288Z,215
2016-03-14T11:24:03.274Z,215
2016-03-14T11:25:03.324Z,215
2016-03-14T11:26:03.280Z,215
2016-03-14T11:27:03.111Z,225
2016-03-14T11:28:03.301Z,220
2016-03-14T11:29:03.241Z,215
2016-03-14T11:30:03.275Z,220
2016-03-14T11:31:03.262Z,220
2016-03-14T11:32:04.844Z,220
2016-03-14T11:33:04.768Z,220
2016-03-14T11:34:03.427Z,220
2016-03-14T11:35:03.383Z,215
2016-03-14T11:36:03.245Z,220
2016-03-14T11:37:03.451Z,215
2016-03-14T11:38:03.968Z,215
2016-03-14T11:39:03.143Z,215
2016-03-14T11:40:03.209Z,215
2016-03-14T11:41:03.211Z,210
2016-03-14T11:42:04.840Z,215
2016-03-14T11:43:03.185Z,210
2016-03-14T11:44:03.187Z,205
2016-03-14T11:45:04.175Z,210
2016-03-14T11:46:03.568Z,210
2016-03-14T11:47:03.821Z,210
2016-03-14T11:48:31.905Z,210
2016-03-14T11:49:04.076Z,210
2016-03-14T11:50:04.611Z,210
2016-03-14T11:51:03.489Z,210
2016-03-14T11:52:03.194Z,210
2016-03-14T11:53:13.103Z,210
2016-03-14T11:54:03.527Z,210
2016-03-14T11:55:03.179Z,210
2016-03-14T11:56:03.111Z,210
2016-03-14T11:57:03.868Z,210
2016-03-14T11:58:03.768Z,210
2016-03-14T11:59:03.048Z,210
2016-03-14T12:00:03.498Z,210
2016-03-14T12:01:03.716Z,215
2016-03-14T12:02:03.386Z,210
2016-03-14T12:03:03.089Z,210
2016-03-14T12:04:03.431Z,210
2016-03-14T12:05:03.120Z,210
2016-03-14T12:06:02.980Z,210
2016-03-14T12:07:02.967Z,210
2016-03-14T12:08:02.953Z,210
2016-03-14T12:09:02.970Z,210
2016-03-14T12:10:02.972Z,210
2016-03-14T12:11:02.943Z,205
2016-03-14T12:12:02.945Z,205
2016-03-14T12:13:02.901Z,205
2016-03-14T12:14:02.934Z,205
2016-03-14T12:15:02.921Z,200
2016-03-14T12:16:02.923Z,200
2016-03-14T12:17:02.910Z,200
2016-03-14T12:18:02.928Z,200
2016-03-14T12:19:02.899Z,200
2016-03-14T12:20:02.871Z,200
2016-03-14T12:21:02.888Z,200
2016-03-14T12:22:02.876Z,200
2016-03-14T12:23:02.846Z,200
2016-03-14T12:24:02.882Z,200
2016-03-14T12:25:02.868Z,200
2016-03-14T12:26:02.855Z,200
2016-03-14T12:27:02.717Z,200
2016-03-14T12:28:02.876Z,200
2016-03-14T12:29:02.831Z,200
2016-03-14T12:30:02.835Z,200
2016-03-14T12:31:02.838Z,205
2016-03-14T12:32:02.824Z,200
2016-03-14T12:33:02.796Z,200
2016-03-14T12:34:02.829Z,200
2016-03-14T12:35:02.786Z,200
2016-03-14T12:36:02.803Z,200
2016-03-14T12:37:02.792Z,200
2016-03-14T12:38:02.794Z,205
2016-03-14T12:39:02.812Z,205
2016-03-14T12:40:02.612Z,205
2016-03-14T12:41:02.756Z,205
2016-03-14T12:42:02.773Z,205
2016-03-14T12:43:02.761Z,205
2016-03-14T12:44:02.731Z,210
2016-03-14T12:45:02.750Z,210
2016-03-14T12:46:02.752Z,210
2016-03-14T12:47:02.724Z,215
2016-03-14T12:48:02.742Z,215
2016-03-14T12:49:02.698Z,215
2016-03-14T12:50:02.732Z,220
2016-03-14T12:51:03.969Z,220
2016-03-14T12:52:02.722Z,220
2016-03-14T12:53:03.615Z,220
2016-03-14T12:54:03.775Z,225
2016-03-14T12:55:03.543Z,230
2016-03-14T12:56:03.420Z,235
2016-03-14T12:57:02.627Z,235
2016-03-14T12:58:02.879Z,240
2016-03-14T12:59:02.694Z,245
2016-03-14T13:00:02.681Z,250
2016-03-14T13:01:04.215Z,260
2016-03-14T13:02:04.014Z,260
2016-03-14T13:03:03.517Z,265
2016-03-14T13:04:02.629Z,270
2016-03-14T13:05:03.381Z,265
2016-03-14T13:06:03.150Z,265
2016-03-14T13:07:04.512Z,270
2016-03-14T13:08:02.608Z,265
2016-03-14T13:09:02.612Z,270
2016-03-14T13:11:03.164Z,270
2016-03-14T13:12:03.026Z,265
2016-03-14T13:13:02.809Z,260
2016-03-14T13:14:02.578Z,255
2016-03-14T13:15:02.580Z,255
2016-03-14T13:16:30.961Z,255
2016-03-14T13:17:16.992Z,245
2016-03-14T13:18:31.716Z,230
2016-03-14T13:19:02.560Z,230
2016-03-14T13:20:02.938Z,220
2016-03-14T13:21:02.846Z,225
2016-03-14T13:22:02.537Z,225
2016-03-14T13:23:02.540Z,225
2016-03-14T13:24:02.557Z,225
2016-03-14T13:25:02.561Z,220
2016-03-14T13:26:02.532Z,220
2016-03-14T13:27:02.504Z,220
2016-03-14T13:28:02.506Z,220
2016-03-14T13:29:02.525Z,215
2016-03-14T13:30:02.527Z,210
2016-03-14T13:31:02.373Z,215
2016-03-14T13:32:02.532Z,220
2016-03-14T13:33:02.504Z,220
2016-03-14T13:34:02.476Z,230
2016-03-14T13:35:02.510Z,240
2016-03-14T13:36:02.481Z,245
2016-03-14T13:37:02.484Z,250
2016-03-14T13:38:02.517Z,255
2016-03-14T13:39:02.473Z,265
2016-03-14T13:40:02.476Z,265
2016-03-14T13:41:02.478Z,270
2016-03-14T13:42:02.482Z,275
2016-03-14T13:43:02.437Z,280
2016-03-14T13:44:02.456Z,285
2016-03-14T13:45:02.489Z,290
2016-03-14T13:46:02.445Z,290
2016-03-14T13:47:02.292Z,290
2016-03-14T13:48:02.419Z,300
2016-03-14T13:49:02.438Z,300
2016-03-14T13:50:02.456Z,310
2016-03-14T13:51:02.444Z,320
2016-03-14T13:52:02.430Z,335
2016-03-14T13:53:02.402Z,350
2016-03-14T13:54:02.404Z,350
2016-03-14T13:55:02.423Z,350
2016-03-14T13:56:02.425Z,355
2016-03-14T13:57:02.396Z,355
2016-03-14T13:58:02.399Z,365
2016-03-14T13:59:02.402Z,365
2016-03-14T14:00:02.374Z,355
2016-03-14T14:01:02.376Z,355
2016-03-14T14:02:02.395Z,370
2016-03-14T14:03:02.381Z,365
2016-03-14T14:04:02.384Z,350
2016-03-14T14:05:02.387Z,340
2016-03-14T14:06:02.535Z,345
2016-03-14T14:07:02.367Z,355
2016-03-14T14:08:02.369Z,355
2016-03-14T14:09:02.371Z,350
2016-03-14T14:10:05.045Z,330
2016-03-14T14:11:03.564Z,305
2016-03-14T14:12:02.380Z,300